createdAt,value
2019-01-25T13:25:13.690Z,76.17
2019-01-25T13:27:43.077Z,81.73
2019-01-25T13:30:15.272Z,76.20
2019-01-25T13:32:44.850Z,73.97
2019-01-25T13:35:14.351Z,76.13
2019-01-25T13:37:43.740Z,77.97
2019-01-25T13:40:15.366Z,73.20
2019-01-25T13:42:44.701Z,73.83
2019-01-25T13:45:16.352Z,74.50
2019-01-25T13:47:45.940Z,81.63
2019-01-25T13:50:20.440Z,76.87
2019-01-25T13:52:49.716Z,83.60
2019-01-25T13:55:19.673Z,77.03
2019-01-25T13:57:48.948Z,75.53
2019-01-25T14:00:32.829Z,87.00
2019-01-25T14:03:02.165Z,89.40
2019-01-25T14:05:31.517Z,104.33
2019-01-25T14:08:00.835Z,67.90
2019-01-25T14:10:34.761Z,61.80
2019-01-25T14:13:04.861Z,65.87
2019-01-25T14:15:34.578Z,64.10
2019-01-25T14:18:04.586Z,64.70
2019-01-25T14:20:34.146Z,71.07
2019-01-25T14:23:04.925Z,66.00
2019-01-25T14:25:34.281Z,63.50
2019-01-25T14:28:03.595Z,65.17
2019-01-25T14:30:38.809Z,68.67
2019-01-25T14:33:08.173Z,62.17
2019-01-25T14:35:37.924Z,63.80
2019-01-25T14:38:07.937Z,64.37
2019-01-25T14:40:37.290Z,65.43
2019-01-25T14:43:06.610Z,71.10
2019-01-25T14:45:36.847Z,68.97
2019-01-25T14:48:07.232Z,64.73
2019-01-25T14:50:36.581Z,61.00
2019-01-25T14:53:06.151Z,65.77
2019-01-25T14:55:35.412Z,63.70
2019-01-25T14:58:05.238Z,58.33
2019-01-25T15:00:34.613Z,57.23
2019-01-25T15:03:04.941Z,64.83
2019-01-25T15:05:34.228Z,61.00
2019-01-25T15:08:03.485Z,68.63
2019-01-25T15:10:32.992Z,62.70
2019-01-25T15:13:02.276Z,64.40
2019-01-25T15:15:31.557Z,89.10
2019-01-25T15:18:00.846Z,66.07
2019-01-25T15:20:30.194Z,72.60
2019-01-25T15:22:59.514Z,78.67
2019-01-25T15:25:28.905Z,81.37
2019-01-25T15:27:58.214Z,80.73
2019-01-25T15:30:29.020Z,82.27
2019-01-25T15:32:58.300Z,80.87
2019-01-25T15:35:27.703Z,75.63
2019-01-25T15:37:57.064Z,68.50
2019-01-25T15:40:26.431Z,65.73
2019-01-25T15:42:55.728Z,64.53
2019-01-25T15:45:25.006Z,61.67
2019-01-25T15:47:55.185Z,75.40
2019-01-25T15:50:48.323Z,75.93
2019-01-25T15:53:17.890Z,68.00
2019-01-25T15:55:48.248Z,60.77
2019-01-25T15:58:17.558Z,66.80
2019-01-25T16:00:46.854Z,59.53
2019-01-25T16:03:16.426Z,69.33
2019-01-25T16:05:45.837Z,69.63
2019-01-25T16:08:15.241Z,87.77
2019-01-25T16:10:45.634Z,82.17
2019-01-25T16:13:15.063Z,98.40
2019-01-25T16:15:44.464Z,118.77
2019-01-25T16:18:13.838Z,123.13
2019-01-25T16:20:44.837Z,77.00
2019-01-25T16:23:14.247Z,95.77
2019-01-25T16:25:43.550Z,76.20
2019-01-25T16:28:12.931Z,126.73
2019-01-25T16:30:42.232Z,109.70
2019-01-25T16:33:11.614Z,218.97
2019-01-25T16:36:00.332Z,349.13
2019-01-25T16:38:29.986Z,172.23
2019-01-25T16:40:59.526Z,83.43
2019-01-25T16:43:29.031Z,117.33
2019-01-25T16:45:58.499Z,154.40
2019-01-25T16:48:27.917Z,112.53
2019-01-25T16:51:02.378Z,114.63
2019-01-25T16:53:31.661Z,119.60
2019-01-25T16:56:01.151Z,83.80
2019-01-25T16:58:30.510Z,158.30
2019-01-25T17:01:00.083Z,211.93
2019-01-25T17:03:29.476Z,115.03
2019-01-25T17:05:58.847Z,167.27
2019-01-25T17:08:28.531Z,106.20
2019-01-25T17:10:57.903Z,89.83
2019-01-25T17:13:27.312Z,235.13
2019-01-25T17:15:56.855Z,213.53
2019-01-25T17:18:26.179Z,96.47
2019-01-25T17:20:55.522Z,287.80
2019-01-25T17:23:24.909Z,164.80
2019-01-25T17:25:54.644Z,145.00
2019-01-25T17:28:24.017Z,117.70
2019-01-25T17:30:53.346Z,99.23
2019-01-25T17:33:22.712Z,63.67
2019-01-25T17:35:52.019Z,58.27
2019-01-25T17:38:21.303Z,209.60
2019-01-25T17:40:50.607Z,157.03
2019-01-25T17:43:19.887Z,191.50
2019-01-25T17:45:49.213Z,162.47
2019-01-25T17:48:20.541Z,207.40
2019-01-25T17:50:51.081Z,212.17
2019-01-25T17:53:20.380Z,230.00
2019-01-25T17:55:49.827Z,176.83
2019-01-25T17:58:19.524Z,83.43
2019-01-25T18:00:50.589Z,74.60
2019-01-25T18:03:21.968Z,89.67
2019-01-25T18:05:51.683Z,80.70
2019-01-25T18:08:21.778Z,67.33
2019-01-25T18:13:37.951Z,77.80
2019-01-25T18:16:07.417Z,92.73
2019-01-25T18:18:37.015Z,75.97
2019-01-25T18:21:06.322Z,92.83
2019-01-25T18:23:35.747Z,102.50
2019-01-25T18:26:05.195Z,73.30
2019-01-25T18:28:38.113Z,56.47
2019-01-25T18:31:11.466Z,53.63
2019-01-25T18:33:42.180Z,51.97
2019-01-25T18:36:11.793Z,48.07
2019-01-25T18:38:41.361Z,49.27
2019-01-25T18:41:10.999Z,47.93
2019-01-25T18:43:40.526Z,58.40
2019-01-25T18:46:10.963Z,48.73
2019-01-25T18:48:40.337Z,50.77
2019-01-25T18:51:09.902Z,57.40
2019-01-25T18:53:39.317Z,40.77
2019-01-25T18:56:09.544Z,44.97
2019-01-25T18:58:40.940Z,45.53
2019-01-25T19:01:10.354Z,51.73
2019-01-25T19:03:39.694Z,54.50
2019-01-25T19:06:10.387Z,55.87
2019-01-25T19:08:39.833Z,64.07
2019-01-25T19:11:09.198Z,91.17
2019-01-25T19:13:38.841Z,41.37
2019-01-25T19:16:08.196Z,42.37
2019-01-25T19:18:37.499Z,49.83
2019-01-25T19:21:06.980Z,43.57
2019-01-25T19:23:36.276Z,40.53
2019-01-25T19:26:05.692Z,42.90
2019-01-25T19:28:34.982Z,38.97
2019-01-25T19:31:04.532Z,42.43
2019-01-25T19:33:33.818Z,44.30
2019-01-25T19:36:03.176Z,37.67
2019-01-25T19:38:32.474Z,41.60
2019-01-25T19:41:01.750Z,39.40
2019-01-25T19:43:31.126Z,35.67
2019-01-25T19:46:00.482Z,44.50
2019-01-25T19:48:29.815Z,36.80
2019-01-25T19:50:59.246Z,36.70
2019-01-25T19:53:28.698Z,37.17
2019-01-25T19:55:58.238Z,39.90
2019-01-25T19:58:27.993Z,41.53
2019-01-25T20:00:57.673Z,49.43
2019-01-25T20:03:27.721Z,42.47
2019-01-25T20:05:58.207Z,34.23
2019-01-25T20:08:27.534Z,40.57
2019-01-25T20:10:57.127Z,40.77
2019-01-25T20:13:26.435Z,43.27
2019-01-25T20:15:55.900Z,41.33
2019-01-25T20:18:25.189Z,44.77
2019-01-25T20:20:54.938Z,42.97
2019-01-25T20:23:24.268Z,39.43
2019-01-25T20:25:53.567Z,39.17
2019-01-25T20:28:22.865Z,40.20
2019-01-25T20:30:52.170Z,43.50
2019-01-25T20:33:21.480Z,35.73
2019-01-25T20:35:50.976Z,38.07
2019-01-25T20:38:20.268Z,37.23
2019-01-25T20:40:49.847Z,40.13
2019-01-25T20:43:19.239Z,45.53
2019-01-25T20:45:48.628Z,39.83
2019-01-25T20:48:17.955Z,36.10
2019-01-25T20:50:47.398Z,47.07
2019-01-25T20:53:17.070Z,58.77
2019-01-25T20:55:46.425Z,97.57
2019-01-25T20:58:15.913Z,333.93
2019-01-25T21:00:45.685Z,194.43
2019-01-25T21:03:15.895Z,66.77
2019-01-25T21:05:45.182Z,60.10
2019-01-25T21:08:14.541Z,49.13
2019-01-25T21:10:43.875Z,54.43
2019-01-25T21:13:13.274Z,44.83
2019-01-25T21:15:42.705Z,58.50
2019-01-25T21:18:12.292Z,49.10
2019-01-25T21:20:43.746Z,55.13
2019-01-25T21:23:13.098Z,36.03
2019-01-25T21:25:43.587Z,36.93
2019-01-25T21:28:13.154Z,38.73
2019-01-25T21:30:42.682Z,38.23
2019-01-25T21:33:12.064Z,30.63
2019-01-25T21:35:41.516Z,31.43
2019-01-25T21:38:10.870Z,33.20
2019-01-25T21:40:40.428Z,27.97
2019-01-25T21:43:10.706Z,28.67
2019-01-25T21:45:43.278Z,26.47
2019-01-25T21:48:11.059Z,34.80
2019-01-25T21:50:42.804Z,25.53
2019-01-25T21:53:12.159Z,42.43
2019-01-25T21:55:41.480Z,128.50
2019-01-25T21:58:10.881Z,192.03
2019-01-25T22:00:40.186Z,170.97
2019-01-25T22:03:09.666Z,60.70
2019-01-25T22:05:39.119Z,86.17
2019-01-25T22:08:08.413Z,103.30
2019-01-25T22:10:40.487Z,70.23
2019-01-25T22:13:10.910Z,38.47
2019-01-25T22:15:40.718Z,24.67
2019-01-25T22:18:10.243Z,31.63
2019-01-25T22:20:39.629Z,45.50
2019-01-25T22:23:09.178Z,31.40
2019-01-25T22:25:38.543Z,35.90
2019-01-25T22:28:08.761Z,34.80
2019-01-25T22:30:38.179Z,25.23
2019-01-25T22:33:07.888Z,31.07
2019-01-25T22:35:37.181Z,28.60
2019-01-25T22:38:06.562Z,31.23
2019-01-25T22:40:35.845Z,28.30
2019-01-25T22:43:05.593Z,28.50
2019-01-25T22:45:34.939Z,27.13
2019-01-25T22:48:04.708Z,29.67
2019-01-25T22:50:34.459Z,29.17
2019-01-25T22:53:03.913Z,28.10
2019-01-25T22:55:33.205Z,27.50
2019-01-25T22:58:02.513Z,50.33
2019-01-25T23:00:57.563Z,51.70
2019-01-25T23:03:30.521Z,40.07
2019-01-25T23:06:14.876Z,31.60
2019-01-25T23:08:44.246Z,29.30
2019-01-25T23:11:13.547Z,33.83
2019-01-25T23:13:42.909Z,33.87
2019-01-25T23:16:12.271Z,31.20
2019-01-25T23:18:41.574Z,30.10
2019-01-25T23:21:10.886Z,31.30
2019-01-25T23:23:40.175Z,27.10
2019-01-25T23:26:10.526Z,28.50
2019-01-25T23:28:39.896Z,33.17
2019-01-25T23:31:09.250Z,31.27
2019-01-25T23:33:38.567Z,29.33
2019-01-25T23:36:07.837Z,28.80
2019-01-25T23:38:37.146Z,33.57
2019-01-25T23:41:06.444Z,29.33
2019-01-25T23:43:36.719Z,34.13
2019-01-25T23:46:06.032Z,29.60
2019-01-25T23:48:35.331Z,30.50
2019-01-25T23:51:04.783Z,25.57
2019-01-25T23:53:34.141Z,35.53
2019-01-25T23:56:03.527Z,31.07
2019-01-25T23:58:32.812Z,31.23
